sensor_id;sensor_type;location;lat;lon;timestamp;pressure;altitude;pressure_sealevel;temperature;humidity
22311;BME280;11323;49.610;11.016;2023-05-23T00:04:40;97784.91;;;22.28;59.13
22311;BME280;11323;49.610;11.016;2023-05-23T00:09:41;97781.09;;;22.24;59.42
22311;BME280;11323;49.610;11.016;2023-05-23T00:14:42;97780.25;;;22.24;58.77
22311;BME280;11323;49.610;11.016;2023-05-23T00:19:42;97780.06;;;22.25;59.05
22311;BME280;11323;49.610;11.016;2023-05-23T00:24:44;97782.56;;;22.20;59.21
22311;BME280;11323;49.610;11.016;2023-05-23T00:29:45;97794.81;;;22.21;59.37
22311;BME280;11323;49.610;11.016;2023-05-23T00:34:45;97796.41;;;22.22;59.06
22311;BME280;11323;49.610;11.016;2023-05-23T00:39:45;97792.38;;;22.19;59.49
22311;BME280;11323;49.610;11.016;2023-05-23T00:44:46;97804.28;;;22.17;59.42
22311;BME280;11323;49.610;11.016;2023-05-23T00:49:47;97806.69;;;22.18;59.43
22311;BME280;11323;49.610;11.016;2023-05-23T00:54:48;97817.31;;;22.18;59.34
22311;BME280;11323;49.610;11.016;2023-05-23T00:59:48;97803.09;;;22.13;59.54
22311;BME280;11323;49.610;11.016;2023-05-23T01:04:50;97802.50;;;22.11;59.64
22311;BME280;11323;49.610;11.016;2023-05-23T01:09:53;97800.22;;;22.14;59.11
22311;BME280;11323;49.610;11.016;2023-05-23T01:15:07;97801.47;;;22.12;59.32
22311;BME280;11323;49.610;11.016;2023-05-23T01:20:13;97808.41;;;22.13;59.23
22311;BME280;11323;49.610;11.016;2023-05-23T01:30:44;97797.22;;;22.11;59.36
22311;BME280;11323;49.610;11.016;2023-05-23T01:35:47;97796.06;;;22.06;59.69
22311;BME280;11323;49.610;11.016;2023-05-23T01:40:48;97799.50;;;22.07;59.52
22311;BME280;11323;49.610;11.016;2023-05-23T01:45:50;97802.41;;;22.05;59.44
22311;BME280;11323;49.610;11.016;2023-05-23T01:50:51;97802.41;;;22.05;59.47
22311;BME280;11323;49.610;11.016;2023-05-23T01:55:52;97800.78;;;22.04;59.59
22311;BME280;11323;49.610;11.016;2023-05-23T02:00:55;97798.44;;;21.96;59.61
22311;BME280;11323;49.610;11.016;2023-05-23T02:05:55;97799.16;;;22.03;59.64
22311;BME280;11323;49.610;11.016;2023-05-23T02:10:56;97800.63;;;21.99;59.46
22311;BME280;11323;49.610;11.016;2023-05-23T02:15:57;97800.88;;;21.98;59.33
22311;BME280;11323;49.610;11.016;2023-05-23T02:20:57;97795.78;;;21.96;59.58
22311;BME280;11323;49.610;11.016;2023-05-23T02:25:57;97806.53;;;22.01;59.25
22311;BME280;11323;49.610;11.016;2023-05-23T02:30:58;97805.84;;;21.94;59.34
22311;BME280;11323;49.610;11.016;2023-05-23T02:35:58;97812.75;;;21.95;59.14
22311;BME280;11323;49.610;11.016;2023-05-23T02:40:59;97812.84;;;21.88;59.65
22311;BME280;11323;49.610;11.016;2023-05-23T02:46:00;97822.19;;;21.91;59.55
22311;BME280;11323;49.610;11.016;2023-05-23T02:51:00;97818.50;;;21.92;59.68
22311;BME280;11323;49.610;11.016;2023-05-23T02:56:01;97825.53;;;21.86;59.54
22311;BME280;11323;49.610;11.016;2023-05-23T03:01:02;97827.50;;;21.91;59.45
22311;BME280;11323;49.610;11.016;2023-05-23T03:06:02;97830.16;;;21.91;59.60
22311;BME280;11323;49.610;11.016;2023-05-23T03:11:05;97834.06;;;21.88;59.54
22311;BME280;11323;49.610;11.016;2023-05-23T03:16:05;97847.91;;;21.90;59.65
22311;BME280;11323;49.610;11.016;2023-05-23T03:21:06;97840.63;;;21.86;59.47
22311;BME280;11323;49.610;11.016;2023-05-23T03:26:07;97843.75;;;21.83;59.83
22311;BME280;11323;49.610;11.016;2023-05-23T03:31:08;97852.72;;;21.82;59.69
22311;BME280;11323;49.610;11.016;2023-05-23T03:36:09;97855.81;;;21.79;59.95
22311;BME280;11323;49.610;11.016;2023-05-23T03:41:09;97861.13;;;21.79;59.79
22311;BME280;11323;49.610;11.016;2023-05-23T03:46:10;97866.66;;;21.77;60.04
22311;BME280;11323;49.610;11.016;2023-05-23T03:51:11;97860.75;;;21.75;59.80
22311;BME280;11323;49.610;11.016;2023-05-23T03:56:12;97860.88;;;21.80;59.70
22311;BME280;11323;49.610;11.016;2023-05-23T04:01:14;97868.50;;;21.77;59.53
22311;BME280;11323;49.610;11.016;2023-05-23T04:06:14;97866.44;;;21.79;59.63
22311;BME280;11323;49.610;11.016;2023-05-23T04:11:19;97872.31;;;21.81;59.44
22311;BME280;11323;49.610;11.016;2023-05-23T04:16:21;97882.69;;;21.82;59.67
22311;BME280;11323;49.610;11.016;2023-05-23T04:21:23;97887.41;;;21.80;59.47
22311;BME280;11323;49.610;11.016;2023-05-23T04:26:37;97895.75;;;21.84;59.51
22311;BME280;11323;49.610;11.016;2023-05-23T04:31:38;97885.16;;;21.84;59.40
22311;BME280;11323;49.610;11.016;2023-05-23T04:36:39;97894.56;;;21.80;59.59
22311;BME280;11323;49.610;11.016;2023-05-23T04:41:41;97899.97;;;21.73;59.88
22311;BME280;11323;49.610;11.016;2023-05-23T04:47:03;97895.91;;;21.70;59.90
22311;BME280;11323;49.610;11.016;2023-05-23T04:52:22;97895.91;;;21.70;59.87
22311;BME280;11323;49.610;11.016;2023-05-23T04:57:23;97903.88;;;21.70;59.83
22311;BME280;11323;49.610;11.016;2023-05-23T05:02:24;97908.50;;;21.75;59.74
22311;BME280;11323;49.610;11.016;2023-05-23T05:07:26;97914.59;;;21.75;59.78
22311;BME280;11323;49.610;11.016;2023-05-23T05:12:28;97914.16;;;21.79;59.62
22311;BME280;11323;49.610;11.016;2023-05-23T05:17:28;97913.75;;;21.82;59.63
22311;BME280;11323;49.610;11.016;2023-05-23T05:22:37;97916.03;;;21.78;59.65
22311;BME280;11323;49.610;11.016;2023-05-23T05:27:44;97915.78;;;21.80;59.51
22311;BME280;11323;49.610;11.016;2023-05-23T05:32:48;97919.91;;;21.75;60.03
22311;BME280;11323;49.610;11.016;2023-05-23T05:37:49;97922.72;;;21.81;59.66
22311;BME280;11323;49.610;11.016;2023-05-23T05:42:50;97923.31;;;21.83;59.57
22311;BME280;11323;49.610;11.016;2023-05-23T05:47:50;97932.44;;;21.87;59.63
22311;BME280;11323;49.610;11.016;2023-05-23T05:52:53;97924.28;;;21.88;59.62
22311;BME280;11323;49.610;11.016;2023-05-23T05:57:53;97927.13;;;21.87;59.40
22311;BME280;11323;49.610;11.016;2023-05-23T06:02:55;97932.06;;;21.83;59.96
22311;BME280;11323;49.610;11.016;2023-05-23T06:08:14;97936.34;;;21.84;59.78
22311;BME280;11323;49.610;11.016;2023-05-23T06:13:16;97938.22;;;21.84;59.75
22311;BME280;11323;49.610;11.016;2023-05-23T06:18:20;97947.91;;;21.90;59.56
22311;BME280;11323;49.610;11.016;2023-05-23T06:23:22;97940.69;;;21.79;58.96
22311;BME280;11323;49.610;11.016;2023-05-23T06:28:23;97950.13;;;21.74;58.51
22311;BME280;11323;49.610;11.016;2023-05-23T06:33:25;97947.03;;;21.59;58.26
22311;BME280;11323;49.610;11.016;2023-05-23T06:38:28;97947.88;;;21.34;58.22
22311;BME280;11323;49.610;11.016;2023-05-23T06:43:30;97943.28;;;21.23;58.20
22311;BME280;11323;49.610;11.016;2023-05-23T06:48:46;97954.53;;;21.18;58.21
22311;BME280;11323;49.610;11.016;2023-05-23T06:53:47;97960.53;;;21.07;58.07
22311;BME280;11323;49.610;11.016;2023-05-23T06:58:48;97954.41;;;21.06;58.27
22311;BME280;11323;49.610;11.016;2023-05-23T07:03:49;97960.91;;;21.10;58.27
22311;BME280;11323;49.610;11.016;2023-05-23T07:08:50;97977.69;;;21.04;58.30
22311;BME280;11323;49.610;11.016;2023-05-23T07:13:51;97971.88;;;20.89;57.90
22311;BME280;11323;49.610;11.016;2023-05-23T07:19:00;97983.50;;;20.88;58.17
22311;BME280;11323;49.610;11.016;2023-05-23T07:24:07;97984.38;;;20.81;57.76
22311;BME280;11323;49.610;11.016;2023-05-23T07:29:07;97979.91;;;20.75;57.94
22311;BME280;11323;49.610;11.016;2023-05-23T07:34:08;97975.00;;;20.72;57.92
22311;BME280;11323;49.610;11.016;2023-05-23T07:39:16;97981.78;;;20.68;57.83
22311;BME280;11323;49.610;11.016;2023-05-23T07:44:22;97982.16;;;20.72;57.97
22311;BME280;11323;49.610;11.016;2023-05-23T07:49:22;97980.75;;;20.76;57.27
22311;BME280;11323;49.610;11.016;2023-05-23T07:54:23;97989.31;;;20.71;57.83
22311;BME280;11323;49.610;11.016;2023-05-23T07:59:28;97994.97;;;20.81;57.23
22311;BME280;11323;49.610;11.016;2023-05-23T08:04:29;97978.28;;;20.74;56.10
22311;BME280;11323;49.610;11.016;2023-05-23T08:09:31;97983.59;;;20.74;55.68
22311;BME280;11323;49.610;11.016;2023-05-23T08:14:32;97987.22;;;20.73;56.15
22311;BME280;11323;49.610;11.016;2023-05-23T08:19:47;98003.56;;;20.70;56.03
22311;BME280;11323;49.610;11.016;2023-05-23T08:24:48;98006.41;;;20.68;55.85
22311;BME280;11323;49.610;11.016;2023-05-23T08:29:49;97994.63;;;20.64;55.71
22311;BME280;11323;49.610;11.016;2023-05-23T08:34:50;98003.56;;;20.70;56.12
22311;BME280;11323;49.610;11.016;2023-05-23T08:39:50;97999.94;;;20.64;56.05
22311;BME280;11323;49.610;11.016;2023-05-23T08:45:10;97999.09;;;20.64;56.03
22311;BME280;11323;49.610;11.016;2023-05-23T08:50:13;98013.00;;;20.52;56.05
22311;BME280;11323;49.610;11.016;2023-05-23T08:55:15;98000.41;;;20.48;56.70
22311;BME280;11323;49.610;11.016;2023-05-23T09:00:17;98004.03;;;20.60;56.23
22311;BME280;11323;49.610;11.016;2023-05-23T09:05:19;98014.59;;;20.60;56.09
22311;BME280;11323;49.610;11.016;2023-05-23T09:10:21;98030.72;;;20.59;55.82
22311;BME280;11323;49.610;11.016;2023-05-23T09:15:22;98043.16;;;20.51;56.07
22311;BME280;11323;49.610;11.016;2023-05-23T09:20:23;98033.41;;;20.52;55.87
22311;BME280;11323;49.610;11.016;2023-05-23T09:25:30;98034.19;;;20.52;54.96
22311;BME280;11323;49.610;11.016;2023-05-23T09:30:33;98040.56;;;20.38;54.95
22311;BME280;11323;49.610;11.016;2023-05-23T09:35:33;98048.09;;;20.41;55.29
22311;BME280;11323;49.610;11.016;2023-05-23T09:40:34;98049.31;;;20.45;54.87
22311;BME280;11323;49.610;11.016;2023-05-23T09:45:37;98054.22;;;20.42;54.78
22311;BME280;11323;49.610;11.016;2023-05-23T09:50:39;98062.94;;;20.42;54.72
22311;BME280;11323;49.610;11.016;2023-05-23T09:55:39;98059.28;;;20.43;54.32
22311;BME280;11323;49.610;11.016;2023-05-23T10:00:40;98068.63;;;20.46;54.38
22311;BME280;11323;49.610;11.016;2023-05-23T10:05:46;98069.25;;;20.41;54.18
22311;BME280;11323;49.610;11.016;2023-05-23T10:16:22;98068.91;;;20.31;54.23
22311;BME280;11323;49.610;11.016;2023-05-23T10:21:32;98071.75;;;20.29;54.73
22311;BME280;11323;49.610;11.016;2023-05-23T10:26:35;98077.06;;;20.29;54.53
22311;BME280;11323;49.610;11.016;2023-05-23T10:31:36;98078.88;;;20.29;54.21
22311;BME280;11323;49.610;11.016;2023-05-23T10:37:00;98090.69;;;20.26;54.10
22311;BME280;11323;49.610;11.016;2023-05-23T10:42:06;98083.56;;;20.27;54.50
22311;BME280;11323;49.610;11.016;2023-05-23T10:47:09;98087.66;;;20.29;54.64
22311;BME280;11323;49.610;11.016;2023-05-23T10:52:13;98099.88;;;20.24;54.53
22311;BME280;11323;49.610;11.016;2023-05-23T10:57:18;98090.72;;;20.13;54.03
22311;BME280;11323;49.610;11.016;2023-05-23T11:02:24;98099.06;;;20.16;53.98
22311;BME280;11323;49.610;11.016;2023-05-23T11:07:30;98087.06;;;20.20;54.41
22311;BME280;11323;49.610;11.016;2023-05-23T11:12:41;98091.31;;;20.21;53.57
22311;BME280;11323;49.610;11.016;2023-05-23T11:17:51;98095.63;;;20.16;53.34
22311;BME280;11323;49.610;11.016;2023-05-23T11:22:59;98090.09;;;20.17;53.33
22311;BME280;11323;49.610;11.016;2023-05-23T11:28:03;98089.69;;;20.20;52.68
22311;BME280;11323;49.610;11.016;2023-05-23T11:33:11;98096.41;;;20.16;53.03
22311;BME280;11323;49.610;11.016;2023-05-23T11:38:16;98100.69;;;20.11;52.75
22311;BME280;11323;49.610;11.016;2023-05-23T11:43:16;98099.06;;;20.16;52.96
22311;BME280;11323;49.610;11.016;2023-05-23T11:48:17;98096.00;;;20.19;52.11
22311;BME280;11323;49.610;11.016;2023-05-23T11:53:19;98093.38;;;20.13;51.63
22311;BME280;11323;49.610;11.016;2023-05-23T11:58:21;98087.69;;;20.09;51.86
22311;BME280;11323;49.610;11.016;2023-05-23T12:03:25;98095.41;;;20.11;51.61
22311;BME280;11323;49.610;11.016;2023-05-23T12:08:25;98099.69;;;20.05;52.27
22311;BME280;11323;49.610;11.016;2023-05-23T12:13:29;98106.44;;;20.01;52.25
22311;BME280;11323;49.610;11.016;2023-05-23T12:18:31;98102.78;;;20.02;52.31
22311;BME280;11323;49.610;11.016;2023-05-23T12:23:31;98115.59;;;19.92;52.82
22311;BME280;11323;49.610;11.016;2023-05-23T12:28:42;98109.31;;;19.93;52.12
22311;BME280;11323;49.610;11.016;2023-05-23T12:33:45;98115.19;;;19.88;52.45
22311;BME280;11323;49.610;11.016;2023-05-23T12:38:47;98112.53;;;19.95;52.41
22311;BME280;11323;49.610;11.016;2023-05-23T12:43:52;98112.13;;;19.91;52.56
22311;BME280;11323;49.610;11.016;2023-05-23T12:48:53;98112.09;;;19.84;51.94
22311;BME280;11323;49.610;11.016;2023-05-23T12:53:54;98115.75;;;19.83;51.90
22311;BME280;11323;49.610;11.016;2023-05-23T12:58:54;98121.66;;;19.79;51.59
22311;BME280;11323;49.610;11.016;2023-05-23T13:03:55;98117.59;;;19.69;51.79
22311;BME280;11323;49.610;11.016;2023-05-23T13:08:55;98112.53;;;19.74;52.33
22311;BME280;11323;49.610;11.016;2023-05-23T13:13:56;98110.91;;;19.94;52.52
22311;BME280;11323;49.610;11.016;2023-05-23T13:18:57;98118.59;;;20.15;52.60
22311;BME280;11323;49.610;11.016;2023-05-23T13:23:57;98115.31;;;20.27;53.02
22311;BME280;11323;49.610;11.016;2023-05-23T13:28:57;98119.78;;;20.33;53.29
22311;BME280;11323;49.610;11.016;2023-05-23T13:33:58;98114.88;;;20.36;53.08
22311;BME280;11323;49.610;11.016;2023-05-23T13:38:58;98123.22;;;20.40;52.95
22311;BME280;11323;49.610;11.016;2023-05-23T13:43:58;98126.47;;;20.42;53.62
22311;BME280;11323;49.610;11.016;2023-05-23T13:48:59;98127.88;;;20.45;53.30
22311;BME280;11323;49.610;11.016;2023-05-23T13:54:00;98121.97;;;20.49;52.79
22311;BME280;11323;49.610;11.016;2023-05-23T13:59:00;98122.56;;;20.51;53.35
22311;BME280;11323;49.610;11.016;2023-05-23T14:04:01;98122.97;;;20.55;53.42
22311;BME280;11323;49.610;11.016;2023-05-23T14:09:01;98123.38;;;20.59;53.65
22311;BME280;11323;49.610;11.016;2023-05-23T14:14:02;98126.63;;;20.61;54.12
22311;BME280;11323;49.610;11.016;2023-05-23T14:19:02;98124.56;;;20.63;54.01
22311;BME280;11323;49.610;11.016;2023-05-23T14:24:03;98122.53;;;20.65;54.29
22311;BME280;11323;49.610;11.016;2023-05-23T14:29:03;98135.75;;;20.72;54.36
22311;BME280;11323;49.610;11.016;2023-05-23T14:34:03;98124.13;;;20.73;54.62
22311;BME280;11323;49.610;11.016;2023-05-23T14:39:04;98129.84;;;20.76;54.82
22311;BME280;11323;49.610;11.016;2023-05-23T14:44:06;98138.41;;;20.78;55.00
22311;BME280;11323;49.610;11.016;2023-05-23T14:49:06;98127.19;;;20.83;55.29
22311;BME280;11323;49.610;11.016;2023-05-23T14:54:07;98123.28;;;20.86;54.99
22311;BME280;11323;49.610;11.016;2023-05-23T14:59:08;98136.13;;;20.89;55.56
22311;BME280;11323;49.610;11.016;2023-05-23T15:04:08;98127.75;;;20.92;55.47
22311;BME280;11323;49.610;11.016;2023-05-23T15:09:09;98133.06;;;20.92;55.39
22311;BME280;11323;49.610;11.016;2023-05-23T15:14:09;98132.22;;;20.91;55.93
22311;BME280;11323;49.610;11.016;2023-05-23T15:19:10;98139.97;;;20.93;55.30
22311;BME280;11323;49.610;11.016;2023-05-23T15:24:10;98134.69;;;20.93;55.15
22311;BME280;11323;49.610;11.016;2023-05-23T15:29:10;98134.06;;;20.91;55.77
22311;BME280;11323;49.610;11.016;2023-05-23T15:34:12;98132.22;;;20.91;55.60
22311;BME280;11323;49.610;11.016;2023-05-23T15:39:12;98140.38;;;20.90;55.77
22311;BME280;11323;49.610;11.016;2023-05-23T15:44:13;98146.50;;;20.90;55.53
22311;BME280;11323;49.610;11.016;2023-05-23T15:49:18;98147.31;;;20.91;55.41
22311;BME280;11323;49.610;11.016;2023-05-23T15:54:18;98147.72;;;20.88;55.37
22311;BME280;11323;49.610;11.016;2023-05-23T15:59:19;98166.47;;;20.93;55.57
22311;BME280;11323;49.610;11.016;2023-05-23T16:04:19;98164.63;;;20.93;55.77
22311;BME280;11323;49.610;11.016;2023-05-23T16:09:20;98159.53;;;20.92;56.18
22311;BME280;11323;49.610;11.016;2023-05-23T16:14:21;98175.00;;;20.95;55.83
22311;BME280;11323;49.610;11.016;2023-05-23T16:19:21;98173.41;;;20.94;56.05
22311;BME280;11323;49.610;11.016;2023-05-23T16:24:21;98175.59;;;20.97;55.81
22311;BME280;11323;49.610;11.016;2023-05-23T16:29:22;98181.13;;;20.95;55.75
22311;BME280;11323;49.610;11.016;2023-05-23T16:34:22;98183.38;;;20.92;56.13
22311;BME280;11323;49.610;11.016;2023-05-23T16:39:22;98185.59;;;20.95;55.63
22311;BME280;11323;49.610;11.016;2023-05-23T16:44:23;98188.84;;;20.97;55.60
22311;BME280;11323;49.610;11.016;2023-05-23T16:49:23;98184.16;;;20.99;55.75
22311;BME280;11323;49.610;11.016;2023-05-23T16:54:23;98188.44;;;21.00;55.68
22311;BME280;11323;49.610;11.016;2023-05-23T16:59:24;98201.06;;;20.98;55.50
22311;BME280;11323;49.610;11.016;2023-05-23T17:04:24;98199.03;;;21.00;55.06
22311;BME280;11323;49.610;11.016;2023-05-23T17:09:24;98212.50;;;20.98;55.34
22311;BME280;11323;49.610;11.016;2023-05-23T17:14:25;98214.50;;;21.03;55.15
22311;BME280;11323;49.610;11.016;2023-05-23T17:19:25;98220.44;;;20.98;54.67
22311;BME280;11323;49.610;11.016;2023-05-23T17:24:26;98227.56;;;20.98;54.54
22311;BME280;11323;49.610;11.016;2023-05-23T17:29:26;98228.97;;;21.01;54.45
22311;BME280;11323;49.610;11.016;2023-05-23T17:34:27;98232.47;;;20.94;54.18
22311;BME280;11323;49.610;11.016;2023-05-23T17:39:27;98238.16;;;20.98;54.99
22311;BME280;11323;49.610;11.016;2023-05-23T17:44:27;98245.09;;;20.99;55.11
22311;BME280;11323;49.610;11.016;2023-05-23T17:49:28;98257.34;;;20.93;54.99
22311;BME280;11323;49.610;11.016;2023-05-23T17:54:28;98251.66;;;20.90;54.02
22311;BME280;11323;49.610;11.016;2023-05-23T17:59:29;98257.16;;;20.88;53.19
22311;BME280;11323;49.610;11.016;2023-05-23T18:04:31;98266.75;;;20.82;54.05
22311;BME280;11323;49.610;11.016;2023-05-23T18:09:32;98268.78;;;20.80;54.18
22311;BME280;11323;49.610;11.016;2023-05-23T18:14:32;98269.19;;;20.84;54.25
22311;BME280;11323;49.610;11.016;2023-05-23T18:19:36;98271.03;;;20.77;54.13
22311;BME280;11323;49.610;11.016;2023-05-23T18:24:36;98274.06;;;20.74;53.82
22311;BME280;11323;49.610;11.016;2023-05-23T18:29:37;98274.06;;;20.87;54.58
22311;BME280;11323;49.610;11.016;2023-05-23T18:34:37;98284.66;;;20.94;54.87
22311;BME280;11323;49.610;11.016;2023-05-23T18:39:38;98278.94;;;20.97;54.96
22311;BME280;11323;49.610;11.016;2023-05-23T18:44:38;98277.91;;;20.98;55.53
22311;BME280;11323;49.610;11.016;2023-05-23T18:49:38;98284.63;;;21.01;55.56
22311;BME280;11323;49.610;11.016;2023-05-23T18:54:40;98286.66;;;21.05;55.41
22311;BME280;11323;49.610;11.016;2023-05-23T18:59:42;98299.69;;;21.07;55.81
22311;BME280;11323;49.610;11.016;2023-05-23T19:04:42;98289.50;;;21.10;55.71
22311;BME280;11323;49.610;11.016;2023-05-23T19:09:42;98296.41;;;21.11;56.07
22311;BME280;11323;49.610;11.016;2023-05-23T19:14:43;98303.13;;;21.14;55.73
22311;BME280;11323;49.610;11.016;2023-05-23T19:19:43;98313.91;;;21.26;55.55
22311;BME280;11323;49.610;11.016;2023-05-23T19:24:44;98321.66;;;21.27;56.10
22311;BME280;11323;49.610;11.016;2023-05-23T19:29:44;98327.97;;;21.20;56.13
22311;BME280;11323;49.610;11.016;2023-05-23T19:34:44;98329.63;;;21.14;56.52
22311;BME280;11323;49.610;11.016;2023-05-23T19:39:45;98346.53;;;21.20;55.92
22311;BME280;11323;49.610;11.016;2023-05-23T19:44:45;98344.50;;;21.22;56.10
22311;BME280;11323;49.610;11.016;2023-05-23T19:49:46;98355.09;;;21.22;56.20
22311;BME280;11323;49.610;11.016;2023-05-23T19:54:46;98354.69;;;21.25;56.25
22311;BME280;11323;49.610;11.016;2023-05-23T19:59:46;98363.44;;;21.25;56.18
22311;BME280;11323;49.610;11.016;2023-05-23T20:04:47;98370.16;;;21.28;56.45
22311;BME280;11323;49.610;11.016;2023-05-23T20:09:47;98380.97;;;21.33;56.21
22311;BME280;11323;49.610;11.016;2023-05-23T20:14:47;98386.47;;;21.38;56.08
22311;BME280;11323;49.610;11.016;2023-05-23T20:19:48;98398.28;;;21.42;56.14
22311;BME280;11323;49.610;11.016;2023-05-23T20:24:48;98398.28;;;21.42;56.43
22311;BME280;11323;49.610;11.016;2023-05-23T20:29:49;98397.06;;;21.38;56.44
22311;BME280;11323;49.610;11.016;2023-05-23T20:34:51;98398.28;;;21.36;56.46
22311;BME280;11323;49.610;11.016;2023-05-23T20:39:51;98411.34;;;21.37;56.84
22311;BME280;11323;49.610;11.016;2023-05-23T20:44:52;98408.47;;;21.39;57.01
22311;BME280;11323;49.610;11.016;2023-05-23T20:49:53;98425.22;;;21.33;57.33
22311;BME280;11323;49.610;11.016;2023-05-23T20:54:54;98432.16;;;21.27;57.45
22311;BME280;11323;49.610;11.016;2023-05-23T20:59:55;98434.22;;;21.25;57.46
22311;BME280;11323;49.610;11.016;2023-05-23T21:04:56;98436.25;;;21.23;57.70
22311;BME280;11323;49.610;11.016;2023-05-23T21:09:56;98436.25;;;21.23;57.56
22311;BME280;11323;49.610;11.016;2023-05-23T21:14:57;98443.59;;;21.21;57.47
22311;BME280;11323;49.610;11.016;2023-05-23T21:19:57;98441.16;;;21.19;57.46
22311;BME280;11323;49.610;11.016;2023-05-23T21:24:58;98449.91;;;21.20;57.64
22311;BME280;11323;49.610;11.016;2023-05-23T21:29:58;98442.38;;;21.17;57.64
22311;BME280;11323;49.610;11.016;2023-05-23T21:34:58;98441.94;;;21.20;57.54
22311;BME280;11323;49.610;11.016;2023-05-23T21:39:59;98437.09;;;21.17;57.65
22311;BME280;11323;49.610;11.016;2023-05-23T21:44:59;98429.72;;;21.19;57.62
22311;BME280;11323;49.610;11.016;2023-05-23T21:49:59;98423.41;;;21.20;57.44
22311;BME280;11323;49.610;11.016;2023-05-23T21:55:00;98433.38;;;21.18;57.72
22311;BME280;11323;49.610;11.016;2023-05-23T22:00:00;98439.72;;;21.17;57.76
22311;BME280;11323;49.610;11.016;2023-05-23T22:05:01;98443.97;;;21.18;57.46
22311;BME280;11323;49.610;11.016;2023-05-23T22:10:02;98450.13;;;21.18;57.49
22311;BME280;11323;49.610;11.016;2023-05-23T22:15:02;98451.13;;;21.17;57.68
22311;BME280;11323;49.610;11.016;2023-05-23T22:20:03;98452.38;;;21.14;57.77
22311;BME280;11323;49.610;11.016;2023-05-23T22:25:04;98456.44;;;21.17;57.66
22311;BME280;11323;49.610;11.016;2023-05-23T22:30:05;98447.69;;;21.17;57.65
22311;BME280;11323;49.610;11.016;2023-05-23T22:35:06;98452.16;;;21.16;57.64
22311;BME280;11323;49.610;11.016;2023-05-23T22:40:07;98452.97;;;21.17;57.49
22311;BME280;11323;49.610;11.016;2023-05-23T22:45:09;98449.28;;;21.18;57.38
22311;BME280;11323;49.610;11.016;2023-05-23T22:50:10;98452.78;;;21.11;57.54
22311;BME280;11323;49.610;11.016;2023-05-23T22:55:10;98449.72;;;21.14;57.33
22311;BME280;11323;49.610;11.016;2023-05-23T23:00:11;98440.31;;;21.12;57.60
22311;BME280;11323;49.610;11.016;2023-05-23T23:05:12;98444.19;;;21.09;57.62
22311;BME280;11323;49.610;11.016;2023-05-23T23:10:13;98439.53;;;21.11;57.53
22311;BME280;11323;49.610;11.016;2023-05-23T23:15:14;98438.28;;;21.07;57.75
22311;BME280;11323;49.610;11.016;2023-05-23T23:20:14;98441.56;;;21.09;57.59
22311;BME280;11323;49.610;11.016;2023-05-23T23:25:16;98433.00;;;21.07;57.67
22311;BME280;11323;49.610;11.016;2023-05-23T23:30:18;98438.28;;;21.07;57.77
22311;BME280;11323;49.610;11.016;2023-05-23T23:35:18;98435.44;;;21.02;57.80
22311;BME280;11323;49.610;11.016;2023-05-23T23:40:18;98429.31;;;21.02;57.78
22311;BME280;11323;49.610;11.016;2023-05-23T23:45:19;98428.91;;;20.98;57.94
22311;BME280;11323;49.610;11.016;2023-05-23T23:50:20;98435.84;;;20.99;58.08
22311;BME280;11323;49.610;11.016;2023-05-23T23:55:20;98437.69;;;20.98;57.97
